Time;durP1;ratioP1;P1;durP2;ratioP2;P2;SDS_P1;SDS_P2;PMS_P1;PMS_P2;Temp;Humidity;BMP_temperature;BMP_pressure;BME280_temperature;BME280_humidity;BME280_pressure;Samples;Min_cycle;Max_cycle;Signal;HPM_P1;HPM_P2
2023/07/22 00:00:44;;;;;;;;;;;;;;;;;;6234721;23;19938;-90
2023/07/22 00:03:10;;;;;;;;;;;;;;;;;;6233644;23;20331;-91
2023/07/22 00:05:36;;;;;;;;;;;;;;;;;;6233638;23;20373;-90
2023/07/22 00:08:02;;;;;;;;;;;;;;;;;;6233968;23;19938;-91
2023/07/22 00:10:28;;;;;;;;;;;;;;;;;;6235003;23;19916;-91
2023/07/22 00:12:54;;;;;;;;;;;;;;;;;;6234402;23;19919;-91
2023/07/22 00:15:22;;;;;;;;;;;;;;;;;;6261102;23;19938;-90
2023/07/22 00:17:52;;;;;;;;;;;;;;;;;;6262843;23;19927;-90
2023/07/22 00:20:19;;;;;;;;;;;;;;;;;;6260500;23;19915;-90
2023/07/22 00:22:45;;;;;;;;;;;;;;;;;;6234630;23;19900;-90
2023/07/22 00:25:11;;;;;;;;;;;;;;;;;;6234185;23;19919;-90
2023/07/22 00:27:37;;;;;;;;;;;;;;;;;;6235334;23;19916;-90
2023/07/22 00:30:03;;;;;;;;;;;;;;;;;;6238012;23;19915;-90
2023/07/22 00:32:29;;;;;;;;;;;;;;;;;;6236836;23;19938;-91
2023/07/22 00:34:55;;;;;;;;;;;;;;;;;;6261817;23;19916;-88
2023/07/22 00:37:21;;;;;;;;;;;;;;;;;;6236746;23;19915;-89
2023/07/22 00:39:47;;;;;;;;;;;;;;;;;;6264600;23;19915;-92
2023/07/22 00:42:16;;;;;;;;;;;;;;;;;;6238982;23;19922;-92
2023/07/22 00:44:45;;;;;;;;;;;;;;;;;;6236606;23;19994;-91
2023/07/22 00:47:12;;;;;;;;;;;;;;;;;;6237235;23;19998;-91
2023/07/22 00:49:38;;;;;;;;;;;;;;;;;;6237780;23;19981;-90
2023/07/22 00:52:04;;;;;;;;;;;;;;;;;;6235876;23;19966;-85
2023/07/22 00:54:30;;;;;;;;;;;;;;;;;;6231894;23;19919;-85
2023/07/22 00:57:02;;;;;;;;;;;;;;;;;;6231021;23;19922;-85
2023/07/22 00:59:27;;;;;;;;;;;;;;;;;;6230998;23;19938;-84
2023/07/22 01:01:56;;;;;;;;;;;;;;;;;;6258236;23;19915;-84
2023/07/22 01:04:24;;;;;;;;;;;;;;;;;;6256112;23;19930;-86
2023/07/22 01:06:50;;;;;;;;;;;;;;;;;;6255476;23;19915;-86
2023/07/22 01:11:48;;;;;;;;;;;;;;;;;;6257612;23;19915;-86
2023/07/22 01:14:14;;;;;;;;;;;;;;;;;;6231332;23;19994;-85
2023/07/22 01:16:43;;;;;;;;;;;;;;;;;;6229218;23;19938;-87
2023/07/22 01:19:09;;;;;;;;;;;;;;;;;;6257030;23;20342;-84
2023/07/22 01:21:38;;;;;;;;;;;;;;;;;;6257199;23;19915;-84
2023/07/22 01:24:07;;;;;;;;;;;;;;;;;;6229858;23;19958;-84
2023/07/22 01:26:33;;;;;;;;;;;;;;;;;;6253952;23;19915;-85
2023/07/22 01:28:59;;;;;;;;;;;;;;;;;;6230760;23;19990;-87
2023/07/22 01:31:25;;;;;;;;;;;;;;;;;;6230937;23;19923;-84
2023/07/22 01:33:52;;;;;;;;;;;;;;;;;;6229355;23;20254;-85
2023/07/22 01:36:19;;;;;;;;;;;;;;;;;;6254952;23;19919;-86
2023/07/22 01:38:45;;;;;;;;;;;;;;;;;;6231460;23;19942;-87
2023/07/22 01:41:11;;;;;;;;;;;;;;;;;;6230759;23;19916;-86
2023/07/22 01:43:37;;;;;;;;;;;;;;;;;;6256060;23;19916;-87
2023/07/22 01:46:04;;;;;;;;;;;;;;;;;;6230788;23;19915;-87
2023/07/22 01:48:30;;;;;;;;;;;;;;;;;;6230290;23;19954;-86
2023/07/22 01:50:56;;;;;;;;;;;;;;;;;;6229943;23;19923;-83
2023/07/22 01:53:22;;;;;;;;;;;;;;;;;;6229944;23;20251;-85
2023/07/22 01:55:48;;;;;;;;;;;;;;;;;;6229222;23;19919;-85
2023/07/22 01:58:17;;;;;;;;;;;;;;;;;;6229803;23;19915;-87
2023/07/22 02:00:46;;;;;;;;;;;;;;;;;;6230442;23;19915;-84
2023/07/22 02:03:16;;;;;;;;;;;;;;;;;;6229961;23;19916;-84
2023/07/22 02:05:45;;;;;;;;;;;;;;;;;;6255646;23;19916;-85
2023/07/22 02:08:11;;;;;;;;;;;;;;;;;;6228857;23;20249;-85
2023/07/22 02:10:37;;;;;;;;;;;;;;;;;;6229842;23;19924;-87
2023/07/22 02:13:04;;;;;;;;;;;;;;;;;;6229998;23;19915;-84
2023/07/22 02:15:30;;;;;;;;;;;;;;;;;;6228721;23;19922;-85
2023/07/22 02:17:56;;;;;;;;;;;;;;;;;;6258119;23;19917;-85
2023/07/22 02:20:22;;;;;;;;;;;;;;;;;;6230188;23;19915;-85
2023/07/22 02:22:49;;;;;;;;;;;;;;;;;;6229957;23;19926;-84
2023/07/22 02:25:15;;;;;;;;;;;;;;;;;;6230337;23;19922;-84
2023/07/22 02:27:44;;;;;;;;;;;;;;;;;;6229428;23;19989;-85
2023/07/22 02:30:10;;;;;;;;;;;;;;;;;;6230624;23;19916;-85
2023/07/22 02:32:36;;;;;;;;;;;;;;;;;;6228663;23;19970;-85
2023/07/22 02:35:06;;;;;;;;;;;;;;;;;;6231116;23;19922;-85
2023/07/22 02:37:33;;;;;;;;;;;;;;;;;;6231167;23;20278;-85
2023/07/22 02:39:59;;;;;;;;;;;;;;;;;;6228680;23;19927;-85
2023/07/22 02:42:25;;;;;;;;;;;;;;;;;;6229546;23;19955;-87
2023/07/22 02:44:51;;;;;;;;;;;;;;;;;;6228617;23;19939;-86
2023/07/22 02:47:16;;;;;;;;;;;;;;;;;;6254783;23;19982;-85
2023/07/22 02:49:42;;;;;;;;;;;;;;;;;;6228418;23;19922;-84
2023/07/22 02:52:08;;;;;;;;;;;;;;;;;;6232125;23;19919;-84
2023/07/22 02:54:34;;;;;;;;;;;;;;;;;;6230948;23;19938;-85
2023/07/22 02:57:00;;;;;;;;;;;;;;;;;;6229378;23;19915;-86
2023/07/22 02:59:26;;;;;;;;;;;;;;;;;;6230600;23;19923;-86
2023/07/22 03:01:52;;;;;;;;;;;;;;;;;;6232553;23;19916;-85
2023/07/22 03:04:19;;;;;;;;;;;;;;;;;;6254708;23;20384;-85
2023/07/22 03:06:45;;;;;;;;;;;;;;;;;;6230931;23;19915;-85
2023/07/22 03:09:11;;;;;;;;;;;;;;;;;;6231102;23;19965;-83
2023/07/22 03:11:37;;;;;;;;;;;;;;;;;;6230739;23;19912;-83
2023/07/22 03:14:03;;;;;;;;;;;;;;;;;;6227952;23;19930;-86
2023/07/22 03:16:31;;;;;;;;;;;;;;;;;;6229847;23;19919;-85
2023/07/22 03:18:57;;;;;;;;;;;;;;;;;;6229046;23;19916;-85
2023/07/22 03:21:24;;;;;;;;;;;;;;;;;;6229360;23;19957;-85
2023/07/22 03:23:50;;;;;;;;;;;;;;;;;;6231809;23;19923;-85
2023/07/22 03:26:16;;;;;;;;;;;;;;;;;;6257237;23;19916;-86
2023/07/22 03:28:42;;;;;;;;;;;;;;;;;;6252499;23;19927;-84
2023/07/22 03:31:08;;;;;;;;;;;;;;;;;;6228400;23;19963;-85
2023/07/22 03:33:34;;;;;;;;;;;;;;;;;;6230799;23;19915;-86
2023/07/22 03:36:00;;;;;;;;;;;;;;;;;;6253144;23;20287;-86
2023/07/22 03:38:26;;;;;;;;;;;;;;;;;;6229822;23;19939;-86
2023/07/22 03:40:55;;;;;;;;;;;;;;;;;;6229462;23;19915;-85
2023/07/22 03:43:21;;;;;;;;;;;;;;;;;;6228605;23;19916;-84
2023/07/22 03:45:47;;;;;;;;;;;;;;;;;;6230423;23;19915;-85
2023/07/22 03:48:16;;;;;;;;;;;;;;;;;;6229355;23;19927;-88
2023/07/22 03:50:42;;;;;;;;;;;;;;;;;;6231352;23;19924;-84
2023/07/22 03:53:08;;;;;;;;;;;;;;;;;;6228378;23;20426;-87
2023/07/22 03:55:34;;;;;;;;;;;;;;;;;;6231488;23;19922;-86
2023/07/22 03:58:06;;;;;;;;;;;;;;;;;;6232432;23;19920;-85
2023/07/22 04:00:32;;;;;;;;;;;;;;;;;;6232004;23;19930;-86
2023/07/22 04:02:58;;;;;;;;;;;;;;;;;;6231344;23;19923;-85
2023/07/22 04:05:29;;;;;;;;;;;;;;;;;;6229672;23;19915;-85
2023/07/22 04:07:55;;;;;;;;;;;;;;;;;;6232304;23;19966;-85
2023/07/22 04:10:21;;;;;;;;;;;;;;;;;;6255222;23;20252;-84
2023/07/22 04:12:47;;;;;;;;;;;;;;;;;;6255700;23;19959;-84
2023/07/22 04:15:15;;;;;;;;;;;;;;;;;;6230010;23;20330;-86
2023/07/22 04:17:40;;;;;;;;;;;;;;;;;;6231179;23;19923;-85
2023/07/22 04:20:08;;;;;;;;;;;;;;;;;;6230719;23;20246;-86
2023/07/22 04:22:38;;;;;;;;;;;;;;;;;;6234055;23;19915;-86
2023/07/22 04:25:04;;;;;;;;;;;;;;;;;;6255298;23;19922;-83
2023/07/22 04:27:30;;;;;;;;;;;;;;;;;;6253483;23;19999;-86
2023/07/22 04:29:56;;;;;;;;;;;;;;;;;;6229390;23;20074;-83
2023/07/22 04:32:25;;;;;;;;;;;;;;;;;;6232195;23;19915;-83
2023/07/22 04:37:23;;;;;;;;;;;;;;;;;;6255795;23;19919;-85
2023/07/22 04:39:50;;;;;;;;;;;;;;;;;;6229051;23;19922;-85
2023/07/22 04:42:16;;;;;;;;;;;;;;;;;;6227733;23;19916;-86
2023/07/22 04:44:44;;;;;;;;;;;;;;;;;;6229357;23;19915;-87
2023/07/22 04:47:10;;;;;;;;;;;;;;;;;;6229686;23;19919;-84
2023/07/22 04:49:36;;;;;;;;;;;;;;;;;;6230622;23;20330;-85
2023/07/22 04:52:02;;;;;;;;;;;;;;;;;;6228921;23;19916;-86
2023/07/22 04:54:28;;;;;;;;;;;;;;;;;;6253925;23;19959;-86
2023/07/22 04:56:54;;;;;;;;;;;;;;;;;;6227661;23;19970;-85
2023/07/22 04:59:20;;;;;;;;;;;;;;;;;;6227623;23;20258;-86
2023/07/22 05:01:46;;;;;;;;;;;;;;;;;;6227999;23;19966;-85
2023/07/22 05:04:13;;;;;;;;;;;;;;;;;;6230549;23;19915;-85
2023/07/22 05:06:39;;;;;;;;;;;;;;;;;;6228016;23;19919;-85
2023/07/22 05:09:05;;;;;;;;;;;;;;;;;;6229028;23;20500;-85
2023/07/22 05:11:31;;;;;;;;;;;;;;;;;;6228924;23;19919;-86
2023/07/22 05:13:57;;;;;;;;;;;;;;;;;;6230791;23;19922;-86
2023/07/22 05:16:23;;;;;;;;;;;;;;;;;;6232948;22;19915;-85
2023/07/22 05:18:51;;;;;;;;;;;;;;;;;;6234521;22;19978;-87
2023/07/22 05:21:20;;;;;;;;;;;;;;;;;;6288355;22;19915;-86
2023/07/22 05:23:46;;;;;;;;;;;;;;;;;;6235930;22;19969;-86
2023/07/22 05:26:12;;;;;;;;;;;;;;;;;;6233787;22;19915;-86
2023/07/22 05:28:38;;;;;;;;;;;;;;;;;;6261240;22;20231;-85
2023/07/22 05:31:04;;;;;;;;;;;;;;;;;;6236588;22;19916;-88
2023/07/22 05:33:33;;;;;;;;;;;;;;;;;;6261818;22;19982;-85
2023/07/22 05:35:59;;;;;;;;;;;;;;;;;;6235179;22;19919;-85
2023/07/22 05:38:25;;;;;;;;;;;;;;;;;;6233461;22;19938;-86
2023/07/22 05:40:51;;;;;;;;;;;;;;;;;;6260581;22;19923;-85
2023/07/22 05:43:17;;;;;;;;;;;;;;;;;;6234218;22;19915;-87
2023/07/22 05:45:50;;;;;;;;;;;;;;;;;;6234122;22;19945;-86
2023/07/22 05:48:16;;;;;;;;;;;;;;;;;;6259648;22;19926;-86
2023/07/22 05:50:42;;;;;;;;;;;;;;;;;;6260486;22;19916;-86
2023/07/22 05:53:08;;;;;;;;;;;;;;;;;;6240205;22;19915;-88
2023/07/22 05:55:34;;;;;;;;;;;;;;;;;;6241975;22;19916;-92
2023/07/22 05:58:08;;;;;;;;;;;;;;;;;;6265293;22;19922;-91
2023/07/22 06:00:34;;;;;;;;;;;;;;;;;;6264733;22;19915;-91
2023/07/22 06:03:00;;;;;;;;;;;;;;;;;;6238001;22;19923;-91
2023/07/22 06:05:29;;;;;;;;;;;;;;;;;;6241113;22;19915;-90
2023/07/22 06:07:59;;;;;;;;;;;;;;;;;;6256120;22;19926;-90
2023/07/22 06:10:25;;;;;;;;;;;;;;;;;;6243202;22;19914;-90
2023/07/22 06:12:51;;;;;;;;;;;;;;;;;;6273175;22;19926;-92
2023/07/22 06:15:17;;;;;;;;;;;;;;;;;;6248448;22;19908;-93
2023/07/22 06:17:45;;;;;;;;;;;;;;;;;;6247596;22;19903;-86
2023/07/22 06:20:21;;;;;;;;;;;;;;;;;;6250082;22;19947;-89
2023/07/22 06:22:47;;;;;;;;;;;;;;;;;;6247987;22;19924;-88
2023/07/22 06:25:14;;;;;;;;;;;;;;;;;;6249533;22;19926;-92
2023/07/22 06:27:42;;;;;;;;;;;;;;;;;;6251198;22;19911;-95
2023/07/22 06:30:08;;;;;;;;;;;;;;;;;;6248923;22;19923;-92
2023/07/22 06:32:35;;;;;;;;;;;;;;;;;;6248996;22;19922;-92
2023/07/22 06:35:04;;;;;;;;;;;;;;;;;;6300241;22;19926;-95
2023/07/22 06:37:30;;;;;;;;;;;;;;;;;;6249058;22;19921;-95
2023/07/22 06:39:56;;;;;;;;;;;;;;;;;;6247489;22;19919;-91
2023/07/22 06:42:42;;;;;;;;;;;;;;;;;;6300698;22;19922;-91
2023/07/22 06:45:09;;;;;;;;;;;;;;;;;;6218874;22;19920;-92
2023/07/22 06:47:37;;;;;;;;;;;;;;;;;;6182952;23;19911;-91
2023/07/22 06:50:24;;;;;;;;;;;;;;;;;;6196995;23;19927;-89
2023/07/22 06:52:53;;;;;;;;;;;;;;;;;;6209680;23;19935;-96
2023/07/22 06:55:21;;;;;;;;;;;;;;;;;;6210713;23;19926;-92
2023/07/22 06:57:48;;;;;;;;;;;;;;;;;;6183653;23;19920;-94
2023/07/22 07:00:14;;;;;;;;;;;;;;;;;;6184536;23;19926;-88
2023/07/22 07:02:41;;;;;;;;;;;;;;;;;;6183715;23;19919;-95
2023/07/22 07:10:31;;;;;;;;;;;;;;;;;;6229880;22;20143;-92
2023/07/22 07:15:45;;;;;;;;;;;;;;;;;;6241363;23;19923;-96
2023/07/22 07:18:20;;;;;;;;;;;;;;;;;;6226854;23;20002;-93
2023/07/22 07:31:33;;;;;;;;;;;;;;;;;;6238590;22;19927;-94
2023/07/22 07:34:07;;;;;;;;;;;;;;;;;;6246206;23;19967;-93
2023/07/22 07:44:59;;;;;;;;;;;;;;;;;;6248526;22;19920;-95
2023/07/22 07:47:25;;;;;;;;;;;;;;;;;;6218066;23;19916;-95
2023/07/22 07:49:53;;;;;;;;;;;;;;;;;;6208926;23;19921;-93
2023/07/22 07:52:22;;;;;;;;;;;;;;;;;;6201154;23;19912;-95
2023/07/22 07:54:48;;;;;;;;;;;;;;;;;;6183643;23;19920;-91
2023/07/22 07:57:14;;;;;;;;;;;;;;;;;;6182367;23;19927;-96
2023/07/22 07:59:40;;;;;;;;;;;;;;;;;;6184256;23;19908;-92
2023/07/22 08:02:09;;;;;;;;;;;;;;;;;;6208649;23;19905;-94
2023/07/22 08:04:38;;;;;;;;;;;;;;;;;;6208174;23;19920;-95
2023/07/22 08:09:58;;;;;;;;;;;;;;;;;;6261551;22;19942;-92
2023/07/22 08:12:24;;;;;;;;;;;;;;;;;;6252420;22;19903;-90
2023/07/22 08:17:26;;;;;;;;;;;;;;;;;;6270648;22;19904;-89
2023/07/22 08:27:42;;;;;;;;;;;;;;;;;;6245975;22;19916;-95
2023/07/22 08:30:08;;;;;;;;;;;;;;;;;;6198116;23;19920;-89
2023/07/22 08:32:35;;;;;;;;;;;;;;;;;;6221192;23;19948;-89
2023/07/22 08:35:02;;;;;;;;;;;;;;;;;;6173340;22;19927;-94
2023/07/22 08:37:28;;;;;;;;;;;;;;;;;;6221158;23;19926;-91
2023/07/22 08:39:57;;;;;;;;;;;;;;;;;;6243180;22;19930;-94
2023/07/22 08:42:23;;;;;;;;;;;;;;;;;;6219419;23;19920;-90
2023/07/22 08:44:52;;;;;;;;;;;;;;;;;;6245280;22;19930;-91
2023/07/22 08:47:18;;;;;;;;;;;;;;;;;;6243412;23;19943;-96
2023/07/22 08:49:45;;;;;;;;;;;;;;;;;;6244983;23;19920;-96
2023/07/22 08:52:11;;;;;;;;;;;;;;;;;;6221278;23;19920;-94
2023/07/22 08:54:37;;;;;;;;;;;;;;;;;;6217812;23;19943;-92
2023/07/22 08:57:03;;;;;;;;;;;;;;;;;;6219575;23;19919;-96
2023/07/22 08:59:29;;;;;;;;;;;;;;;;;;6219946;23;19969;-93
2023/07/22 09:01:55;;;;;;;;;;;;;;;;;;6218848;23;19926;-92
2023/07/22 09:04:21;;;;;;;;;;;;;;;;;;6218705;23;19915;-94
2023/07/22 09:06:48;;;;;;;;;;;;;;;;;;6244053;23;19924;-94
2023/07/22 09:09:15;;;;;;;;;;;;;;;;;;6241136;22;19942;-96
2023/07/22 09:11:41;;;;;;;;;;;;;;;;;;6216111;23;20034;-94
2023/07/22 09:14:10;;;;;;;;;;;;;;;;;;6267204;23;19956;-92
2023/07/22 09:16:37;;;;;;;;;;;;;;;;;;6240591;23;19919;-92
2023/07/22 09:19:03;;;;;;;;;;;;;;;;;;6216702;23;19910;-93
2023/07/22 09:21:29;;;;;;;;;;;;;;;;;;6216685;23;19974;-95
2023/07/22 09:24:06;;;;;;;;;;;;;;;;;;6214474;23;19919;-92
2023/07/22 09:26:33;;;;;;;;;;;;;;;;;;6214939;23;19959;-92
2023/07/22 09:28:59;;;;;;;;;;;;;;;;;;6215402;23;20297;-92
2023/07/22 09:31:24;;;;;;;;;;;;;;;;;;6217923;23;19950;-95
2023/07/22 09:33:50;;;;;;;;;;;;;;;;;;6214450;23;19919;-94
2023/07/22 09:36:16;;;;;;;;;;;;;;;;;;6213598;23;19980;-96
2023/07/22 09:38:42;;;;;;;;;;;;;;;;;;6213927;23;19919;-96
2023/07/22 09:41:09;;;;;;;;;;;;;;;;;;6213737;23;20682;-96
2023/07/22 09:43:34;;;;;;;;;;;;;;;;;;6238489;23;19943;-95
2023/07/22 09:48:44;;;;;;;;;;;;;;;;;;6266739;22;19926;-93
2023/07/22 09:51:10;;;;;;;;;;;;;;;;;;6214694;23;19910;-95
2023/07/22 09:53:36;;;;;;;;;;;;;;;;;;6217877;23;19920;-95
2023/07/22 09:56:02;;;;;;;;;;;;;;;;;;6216348;23;19919;-96
2023/07/22 09:58:28;;;;;;;;;;;;;;;;;;6214894;22;19946;-96
2023/07/22 10:01:13;;;;;;;;;;;;;;;;;;6214353;23;19924;-91
2023/07/22 10:03:39;;;;;;;;;;;;;;;;;;6239093;23;19920;-94
2023/07/22 10:06:05;;;;;;;;;;;;;;;;;;6214583;23;19962;-93
2023/07/22 10:08:31;;;;;;;;;;;;;;;;;;6236575;23;19920;-91
2023/07/22 10:10:57;;;;;;;;;;;;;;;;;;6212258;23;19915;-92
2023/07/22 10:13:24;;;;;;;;;;;;;;;;;;6211098;23;19937;-89
2023/07/22 10:15:50;;;;;;;;;;;;;;;;;;6211469;23;19920;-93
2023/07/22 10:18:17;;;;;;;;;;;;;;;;;;6211455;23;19959;-96
2023/07/22 10:20:43;;;;;;;;;;;;;;;;;;6213030;23;19920;-92
2023/07/22 10:23:11;;;;;;;;;;;;;;;;;;6211690;23;19923;-94
2023/07/22 10:25:36;;;;;;;;;;;;;;;;;;6212124;23;20246;-95
2023/07/22 10:28:04;;;;;;;;;;;;;;;;;;6212590;23;19942;-93
2023/07/22 10:30:30;;;;;;;;;;;;;;;;;;6211756;23;20317;-92
2023/07/22 10:32:56;;;;;;;;;;;;;;;;;;6212627;23;19970;-92
2023/07/22 10:35:23;;;;;;;;;;;;;;;;;;6213617;23;19943;-94
2023/07/22 10:37:51;;;;;;;;;;;;;;;;;;6212848;23;19926;-94
2023/07/22 10:40:18;;;;;;;;;;;;;;;;;;6240998;23;19947;-94
2023/07/22 10:42:44;;;;;;;;;;;;;;;;;;6215009;23;19924;-93
2023/07/22 10:45:11;;;;;;;;;;;;;;;;;;6216325;23;19920;-96
2023/07/22 10:47:37;;;;;;;;;;;;;;;;;;6216403;23;19916;-91
2023/07/22 10:50:03;;;;;;;;;;;;;;;;;;6215821;23;19957;-95
2023/07/22 10:55:33;;;;;;;;;;;;;;;;;;6218744;23;19927;-94
2023/07/22 10:57:59;;;;;;;;;;;;;;;;;;6181311;23;19916;-91
2023/07/22 11:00:25;;;;;;;;;;;;;;;;;;6182207;23;19922;-92
2023/07/22 11:02:51;;;;;;;;;;;;;;;;;;6185075;23;19911;-91
2023/07/22 11:05:20;;;;;;;;;;;;;;;;;;6185948;23;19911;-94
2023/07/22 11:07:47;;;;;;;;;;;;;;;;;;6187148;23;19904;-92
2023/07/22 11:10:16;;;;;;;;;;;;;;;;;;6212204;23;19939;-90
2023/07/22 11:12:42;;;;;;;;;;;;;;;;;;6185308;23;19921;-86
2023/07/22 11:15:11;;;;;;;;;;;;;;;;;;6176671;23;19917;-85
2023/07/22 11:17:37;;;;;;;;;;;;;;;;;;6178198;23;20252;-85
2023/07/22 11:20:03;;;;;;;;;;;;;;;;;;6178958;23;19943;-87
2023/07/22 11:22:32;;;;;;;;;;;;;;;;;;6201574;23;19923;-84
2023/07/22 11:24:58;;;;;;;;;;;;;;;;;;6174147;23;19950;-84
2023/07/22 11:27:30;;;;;;;;;;;;;;;;;;6174986;23;19917;-85
2023/07/22 11:29:56;;;;;;;;;;;;;;;;;;6172971;23;19952;-84
2023/07/22 11:32:22;;;;;;;;;;;;;;;;;;6171763;23;19916;-83
2023/07/22 11:34:48;;;;;;;;;;;;;;;;;;6171280;23;19944;-83
2023/07/22 11:37:22;;;;;;;;;;;;;;;;;;6196905;23;19917;-83
2023/07/22 11:39:50;;;;;;;;;;;;;;;;;;6170544;23;19924;-83
2023/07/22 11:42:19;;;;;;;;;;;;;;;;;;6169542;23;19916;-83
2023/07/22 11:44:45;;;;;;;;;;;;;;;;;;6170303;23;20316;-84
2023/07/22 11:47:14;;;;;;;;;;;;;;;;;;6170215;23;19924;-84
2023/07/22 11:49:40;;;;;;;;;;;;;;;;;;6171230;23;19987;-81
2023/07/22 11:52:09;;;;;;;;;;;;;;;;;;6185543;23;20306;-84
2023/07/22 11:54:35;;;;;;;;;;;;;;;;;;6166641;23;19916;-86
2023/07/22 11:57:01;;;;;;;;;;;;;;;;;;6195703;23;19970;-84
2023/07/22 11:59:27;;;;;;;;;;;;;;;;;;6167563;23;19923;-84
2023/07/22 12:01:55;;;;;;;;;;;;;;;;;;6170421;23;20398;-83
2023/07/22 12:04:21;;;;;;;;;;;;;;;;;;6168681;23;20266;-85
2023/07/22 12:06:50;;;;;;;;;;;;;;;;;;6172487;23;19947;-83
2023/07/22 12:12:19;;;;;;;;;;;;;;;;;;6210156;23;20030;-85
2023/07/22 12:14:45;;;;;;;;;;;;;;;;;;6173189;23;19956;-85
2023/07/22 12:17:14;;;;;;;;;;;;;;;;;;6173163;23;19916;-85
2023/07/22 12:22:44;;;;;;;;;;;;;;;;;;6212327;23;19899;-83
2023/07/22 12:25:11;;;;;;;;;;;;;;;;;;6199728;23;20328;-82
2023/07/22 12:27:37;;;;;;;;;;;;;;;;;;6199021;23;19916;-85
2023/07/22 12:30:05;;;;;;;;;;;;;;;;;;6177478;23;19920;-84
2023/07/22 12:32:31;;;;;;;;;;;;;;;;;;6200182;23;20252;-85
2023/07/22 12:35:03;;;;;;;;;;;;;;;;;;6175601;23;19916;-83
2023/07/22 12:37:29;;;;;;;;;;;;;;;;;;6200753;23;20259;-84
2023/07/22 12:39:55;;;;;;;;;;;;;;;;;;6202481;23;19917;-84
2023/07/22 12:42:21;;;;;;;;;;;;;;;;;;6201056;23;19940;-96
2023/07/22 12:50:05;;;;;;;;;;;;;;;;;;6225169;22;19911;-93
2023/07/22 12:52:36;;;;;;;;;;;;;;;;;;6192898;23;19904;-95
2023/07/22 12:55:07;;;;;;;;;;;;;;;;;;6190879;23;19920;-96
2023/07/22 12:57:33;;;;;;;;;;;;;;;;;;6191244;23;19934;-93
2023/07/22 13:00:06;;;;;;;;;;;;;;;;;;6217013;23;19947;-91
2023/07/22 13:02:32;;;;;;;;;;;;;;;;;;6191538;23;19936;-93
2023/07/22 13:05:09;;;;;;;;;;;;;;;;;;6216161;23;19904;-91
2023/07/22 13:10:16;;;;;;;;;;;;;;;;;;6270667;22;20361;-92
2023/07/22 13:12:44;;;;;;;;;;;;;;;;;;6246410;22;19914;-94
2023/07/22 13:15:47;;;;;;;;;;;;;;;;;;6247044;23;19914;-94
2023/07/22 13:18:13;;;;;;;;;;;;;;;;;;6220047;23;19923;-93
2023/07/22 13:23:15;;;;;;;;;;;;;;;;;;6248333;22;19911;-93
2023/07/22 13:25:44;;;;;;;;;;;;;;;;;;6244206;23;19924;-94
2023/07/22 13:41:54;;;;;;;;;;;;;;;;;;6277179;22;19899;-94
2023/07/22 13:46:50;;;;;;;;;;;;;;;;;;6271683;22;19899;-90
2023/07/22 13:49:17;;;;;;;;;;;;;;;;;;6247316;22;20002;-94
2023/07/22 13:51:45;;;;;;;;;;;;;;;;;;6251878;22;19919;-91
2023/07/22 13:57:20;;;;;;;;;;;;;;;;;;6296817;22;19945;-83
2023/07/22 13:59:49;;;;;;;;;;;;;;;;;;6238426;22;19959;-84
2023/07/22 14:02:15;;;;;;;;;;;;;;;;;;6234237;22;20329;-84
2023/07/22 14:04:41;;;;;;;;;;;;;;;;;;6241901;22;19923;-86
2023/07/22 14:10:13;;;;;;;;;;;;;;;;;;6302179;22;19914;-83
2023/07/22 14:12:40;;;;;;;;;;;;;;;;;;6242317;22;19919;-83
2023/07/22 14:15:06;;;;;;;;;;;;;;;;;;6240208;22;20325;-85
2023/07/22 14:17:33;;;;;;;;;;;;;;;;;;6265033;22;20365;-85
2023/07/22 14:19:59;;;;;;;;;;;;;;;;;;6236614;22;19915;-84
2023/07/22 14:22:25;;;;;;;;;;;;;;;;;;6232491;22;19915;-85
2023/07/22 14:24:54;;;;;;;;;;;;;;;;;;6265601;22;19994;-85
2023/07/22 14:27:20;;;;;;;;;;;;;;;;;;6237856;22;19942;-84
2023/07/22 14:29:46;;;;;;;;;;;;;;;;;;6258088;22;20337;-83
2023/07/22 14:32:12;;;;;;;;;;;;;;;;;;6261587;22;19982;-85
2023/07/22 14:34:38;;;;;;;;;;;;;;;;;;6233655;22;20338;-84
2023/07/22 14:37:04;;;;;;;;;;;;;;;;;;6235924;22;19922;-83
2023/07/22 14:39:30;;;;;;;;;;;;;;;;;;6259504;22;19926;-84
2023/07/22 14:41:56;;;;;;;;;;;;;;;;;;6233443;22;19993;-85
2023/07/22 14:44:22;;;;;;;;;;;;;;;;;;6232166;22;19922;-84
2023/07/22 14:46:49;;;;;;;;;;;;;;;;;;6257283;22;19957;-84
2023/07/22 14:49:15;;;;;;;;;;;;;;;;;;6230797;22;19923;-84
2023/07/22 14:51:45;;;;;;;;;;;;;;;;;;6236421;22;19922;-85
2023/07/22 14:54:14;;;;;;;;;;;;;;;;;;6260663;22;19919;-83
2023/07/22 14:56:40;;;;;;;;;;;;;;;;;;6236534;22;19938;-84
2023/07/22 14:59:07;;;;;;;;;;;;;;;;;;6243136;22;19955;-83
2023/07/22 15:04:37;;;;;;;;;;;;;;;;;;6307340;22;19914;-84
2023/07/22 15:07:03;;;;;;;;;;;;;;;;;;6240937;22;19915;-84
2023/07/22 15:09:30;;;;;;;;;;;;;;;;;;6241590;22;19951;-84
2023/07/22 15:11:56;;;;;;;;;;;;;;;;;;6240936;22;19919;-85
2023/07/22 15:14:22;;;;;;;;;;;;;;;;;;6242878;22;20250;-84
2023/07/22 15:16:48;;;;;;;;;;;;;;;;;;6244670;22;19915;-85
2023/07/22 15:19:26;;;;;;;;;;;;;;;;;;6269682;22;19915;-84
2023/07/22 15:21:55;;;;;;;;;;;;;;;;;;6244652;22;20289;-86
2023/07/22 15:24:21;;;;;;;;;;;;;;;;;;6245921;22;19915;-86
2023/07/22 15:26:49;;;;;;;;;;;;;;;;;;6270690;22;19921;-86
2023/07/22 15:29:24;;;;;;;;;;;;;;;;;;6247024;22;20022;-85
2023/07/22 15:31:50;;;;;;;;;;;;;;;;;;6268343;22;20342;-84
2023/07/22 15:34:16;;;;;;;;;;;;;;;;;;6245027;22;19922;-85
2023/07/22 15:36:45;;;;;;;;;;;;;;;;;;6270422;22;20315;-86
2023/07/22 15:39:14;;;;;;;;;;;;;;;;;;6246119;22;19942;-86
2023/07/22 15:41:59;;;;;;;;;;;;;;;;;;6299044;22;20261;-86
2023/07/22 15:44:27;;;;;;;;;;;;;;;;;;6269370;22;19899;-87
2023/07/22 15:46:59;;;;;;;;;;;;;;;;;;6296407;22;19919;-87
2023/07/22 15:49:28;;;;;;;;;;;;;;;;;;6246447;22;19920;-85
2023/07/22 15:52:04;;;;;;;;;;;;;;;;;;6246660;22;19963;-88
2023/07/22 15:54:36;;;;;;;;;;;;;;;;;;6270710;22;20226;-85
2023/07/22 15:57:02;;;;;;;;;;;;;;;;;;6268344;22;19937;-85
2023/07/22 15:59:28;;;;;;;;;;;;;;;;;;6265757;22;19990;-87
2023/07/22 16:01:54;;;;;;;;;;;;;;;;;;6238985;22;19922;-86
2023/07/22 16:04:23;;;;;;;;;;;;;;;;;;6262078;22;19915;-85
2023/07/22 16:06:49;;;;;;;;;;;;;;;;;;6238774;22;19915;-85
2023/07/22 16:09:16;;;;;;;;;;;;;;;;;;6241933;22;19930;-85
2023/07/22 16:11:41;;;;;;;;;;;;;;;;;;6235091;22;19918;-86
2023/07/22 16:14:11;;;;;;;;;;;;;;;;;;6235623;22;19915;-85
2023/07/22 16:16:41;;;;;;;;;;;;;;;;;;6232148;22;20292;-86
2023/07/22 16:19:13;;;;;;;;;;;;;;;;;;6271530;22;22083;-85
2023/07/22 16:21:44;;;;;;;;;;;;;;;;;;6259604;22;19915;-87
2023/07/22 16:24:14;;;;;;;;;;;;;;;;;;6235784;22;20357;-86
2023/07/22 16:26:40;;;;;;;;;;;;;;;;;;6235807;22;19949;-86
2023/07/22 16:29:07;;;;;;;;;;;;;;;;;;6232829;22;20306;-85
2023/07/22 16:31:35;;;;;;;;;;;;;;;;;;6233889;22;19915;-85
2023/07/22 16:34:02;;;;;;;;;;;;;;;;;;6259017;22;19994;-85
2023/07/22 16:36:28;;;;;;;;;;;;;;;;;;6234669;22;19986;-86
2023/07/22 16:38:58;;;;;;;;;;;;;;;;;;6259107;22;19915;-86
2023/07/22 16:41:27;;;;;;;;;;;;;;;;;;6231612;22;19958;-87
2023/07/22 16:44:03;;;;;;;;;;;;;;;;;;6261450;22;19915;-85
2023/07/22 16:46:32;;;;;;;;;;;;;;;;;;6233034;22;19923;-86
2023/07/22 16:48:58;;;;;;;;;;;;;;;;;;6261360;22;19915;-86
2023/07/22 16:51:24;;;;;;;;;;;;;;;;;;6234023;22;19922;-85
2023/07/22 16:53:50;;;;;;;;;;;;;;;;;;6257565;22;19915;-85
2023/07/22 16:56:18;;;;;;;;;;;;;;;;;;6261473;22;19975;-86
2023/07/22 16:58:47;;;;;;;;;;;;;;;;;;6261235;22;19915;-85
2023/07/22 17:01:13;;;;;;;;;;;;;;;;;;6234459;22;19958;-85
2023/07/22 17:03:39;;;;;;;;;;;;;;;;;;6231845;22;19937;-85
2023/07/22 17:06:15;;;;;;;;;;;;;;;;;;;;;
2023/07/22 17:08:42;;;;;;;;;;;;;;;;;;6260016;22;20373;-86
2023/07/22 17:11:12;;;;;;;;;;;;;;;;;;6260621;22;19938;-87
2023/07/22 17:13:38;;;;;;;;;;;;;;;;;;6237612;22;19961;-86
2023/07/22 17:16:04;;;;;;;;;;;;;;;;;;6236425;22;19919;-85
2023/07/22 17:18:30;;;;;;;;;;;;;;;;;;6235686;22;19938;-85
2023/07/22 17:20:56;;;;;;;;;;;;;;;;;;6261715;22;20405;-85
2023/07/22 17:23:22;;;;;;;;;;;;;;;;;;6236807;22;19919;-84
2023/07/22 17:25:52;;;;;;;;;;;;;;;;;;6261527;22;19920;-85
2023/07/22 17:28:30;;;;;;;;;;;;;;;;;;6262355;22;20330;-85
2023/07/22 17:30:56;;;;;;;;;;;;;;;;;;6259411;22;19990;-85
2023/07/22 17:33:29;;;;;;;;;;;;;;;;;;6236127;22;19915;-86
2023/07/22 17:39:20;;;;;;;;;;;;;;;;;;6296888;22;19918;-84
2023/07/22 17:41:52;;;;;;;;;;;;;;;;;;6234135;22;19942;-84
2023/07/22 17:44:28;;;;;;;;;;;;;;;;;;6231127;22;20358;-86
2023/07/22 17:46:54;;;;;;;;;;;;;;;;;;6259297;22;20287;-85
2023/07/22 17:49:20;;;;;;;;;;;;;;;;;;6231961;22;20261;-85
2023/07/22 17:51:49;;;;;;;;;;;;;;;;;;6260472;22;19960;-88
2023/07/22 17:54:15;;;;;;;;;;;;;;;;;;6259210;22;19965;-85
2023/07/22 17:56:41;;;;;;;;;;;;;;;;;;6237330;22;20447;-86
2023/07/22 17:59:07;;;;;;;;;;;;;;;;;;6237433;22;19969;-84
2023/07/22 18:01:33;;;;;;;;;;;;;;;;;;6236367;22;19937;-85
2023/07/22 18:04:00;;;;;;;;;;;;;;;;;;6236156;22;19974;-86
2023/07/22 18:06:26;;;;;;;;;;;;;;;;;;6231309;22;19923;-84
2023/07/22 18:08:55;;;;;;;;;;;;;;;;;;6236208;22;19915;-84
2023/07/22 18:11:24;;;;;;;;;;;;;;;;;;6233262;22;19939;-86
2023/07/22 18:13:54;;;;;;;;;;;;;;;;;;6261623;22;20242;-86
2023/07/22 18:16:30;;;;;;;;;;;;;;;;;;6236850;22;19919;-85
2023/07/22 18:18:58;;;;;;;;;;;;;;;;;;6231916;22;19926;-87
2023/07/22 18:21:24;;;;;;;;;;;;;;;;;;6234311;22;19955;-85
2023/07/22 18:23:50;;;;;;;;;;;;;;;;;;6256970;22;19915;-86